createdAt,value
2023-04-01T00:00:54.266Z,10.20
2023-04-01T00:01:56.296Z,10.22
2023-04-01T00:02:58.093Z,10.23
2023-04-01T00:04:00.317Z,10.22
2023-04-01T00:05:02.857Z,10.20
2023-04-01T00:06:04.640Z,10.22
2023-04-01T00:07:06.447Z,10.23
2023-04-01T00:08:08.052Z,10.23
2023-04-01T00:09:09.631Z,10.20
2023-04-01T00:10:12.177Z,10.22
2023-04-01T00:11:14.150Z,10.22
2023-04-01T00:12:15.841Z,10.16
2023-04-01T00:13:17.585Z,10.20
2023-04-01T00:14:19.208Z,10.19
2023-04-01T00:15:20.940Z,10.22
2023-04-01T00:16:22.870Z,10.23
2023-04-01T00:17:24.663Z,10.26
2023-04-01T00:18:26.583Z,10.20
2023-04-01T00:19:28.222Z,10.22
2023-04-01T00:20:30.421Z,10.23
2023-04-01T00:21:32.104Z,10.23
2023-04-01T00:22:34.932Z,10.23
2023-04-01T00:23:37.038Z,10.22
2023-04-01T00:24:39.453Z,10.15
2023-04-01T00:25:41.132Z,10.13
2023-04-01T00:26:43.419Z,10.12
2023-04-01T00:27:45.298Z,10.12
2023-04-01T00:28:47.113Z,10.08
2023-04-01T00:29:48.786Z,10.06
2023-04-01T00:30:50.367Z,10.12
2023-04-01T00:31:52.123Z,10.09
2023-04-01T00:32:54.424Z,10.10
2023-04-01T00:33:56.086Z,10.10
2023-04-01T00:34:59.981Z,10.05
2023-04-01T00:36:12.138Z,10.09
2023-04-01T00:37:13.859Z,10.10
2023-04-01T00:38:15.537Z,10.13
2023-04-01T00:39:17.540Z,10.13
2023-04-01T00:40:24.382Z,10.16
2023-04-01T00:41:27.213Z,10.18
2023-04-01T00:42:29.532Z,10.15
2023-04-01T00:43:31.413Z,10.12
2023-04-01T00:44:34.306Z,10.18
2023-04-01T00:45:43.449Z,10.15
2023-04-01T00:46:45.134Z,10.15
2023-04-01T00:47:46.851Z,10.18
2023-04-01T00:48:49.944Z,10.10
2023-04-01T00:49:52.344Z,10.12
2023-04-01T00:50:57.654Z,10.12
2023-04-01T00:52:00.429Z,10.05
2023-04-01T00:53:02.135Z,10.12
2023-04-01T00:54:04.791Z,10.12
2023-04-01T00:55:06.762Z,10.13
2023-04-01T00:56:27.993Z,10.16
2023-04-01T00:57:32.414Z,10.20
2023-04-01T00:58:36.153Z,10.22
2023-04-01T00:59:43.087Z,10.22
2023-04-01T01:00:44.754Z,10.23
2023-04-01T01:01:46.531Z,10.26
2023-04-01T01:02:48.247Z,10.28
2023-04-01T01:03:49.915Z,10.29
2023-04-01T01:04:51.618Z,10.29
2023-04-01T01:06:23.275Z,10.29
2023-04-01T01:07:33.713Z,10.23
2023-04-01T01:08:41.173Z,10.25
2023-04-01T01:10:09.340Z,10.20
2023-04-01T01:11:11.480Z,10.13
2023-04-01T01:12:22.059Z,10.08
2023-04-01T01:13:33.137Z,10.05
2023-04-01T01:14:52.260Z,9.98
2023-04-01T01:15:56.380Z,9.87
2023-04-01T01:17:03.223Z,9.82
2023-04-01T01:18:17.131Z,9.75
2023-04-01T01:19:51.445Z,9.75
2023-04-01T01:21:23.613Z,9.81
2023-04-01T01:23:19.286Z,9.81
2023-04-01T01:24:29.213Z,9.79
2023-04-01T01:26:09.141Z,9.84
2023-04-01T01:27:20.542Z,9.88
2023-04-01T01:28:47.521Z,9.85
2023-04-01T01:30:10.790Z,9.82
2023-04-01T01:31:15.957Z,9.79
2023-04-01T01:32:48.096Z,9.77
2023-04-01T01:34:14.069Z,9.77
2023-04-01T01:35:38.450Z,9.73
2023-04-01T01:36:40.185Z,9.68
2023-04-01T01:37:42.166Z,9.65
2023-04-01T01:38:43.783Z,9.64
2023-04-01T01:39:54.469Z,9.58
2023-04-01T01:40:57.650Z,9.57
2023-04-01T01:42:01.220Z,9.51
2023-04-01T01:43:09.360Z,9.50
2023-04-01T01:44:12.306Z,9.52
2023-04-01T01:45:13.976Z,9.52
2023-04-01T01:46:17.913Z,9.55
2023-04-01T01:47:19.552Z,9.55
2023-04-01T01:48:21.474Z,9.67
2023-04-01T01:49:23.124Z,9.68
2023-04-01T01:50:25.395Z,9.70
2023-04-01T01:51:27.566Z,9.73
2023-04-01T01:52:29.484Z,9.75
2023-04-01T01:53:31.124Z,9.77
2023-04-01T01:54:32.703Z,9.84
2023-04-01T01:55:36.654Z,9.88
2023-04-01T01:56:38.304Z,9.87
2023-04-01T01:57:39.956Z,9.91
2023-04-01T01:58:44.681Z,9.95
2023-04-01T01:59:46.408Z,9.95
2023-04-01T02:00:51.825Z,10.01
2023-04-01T02:01:54.745Z,10.03
2023-04-01T02:02:56.640Z,10.03
2023-04-01T02:03:58.869Z,10.03
2023-04-01T02:05:00.681Z,10.05
2023-04-01T02:06:03.350Z,10.05
2023-04-01T02:07:06.820Z,10.05
2023-04-01T02:08:17.385Z,10.08
2023-04-01T02:09:19.006Z,10.12
2023-04-01T02:10:20.870Z,10.10
2023-04-01T02:11:49.930Z,10.12
2023-04-01T02:12:51.845Z,10.13
2023-04-01T02:13:54.408Z,10.18
2023-04-01T02:15:01.762Z,10.16
2023-04-01T02:16:05.936Z,10.16
2023-04-01T02:17:09.965Z,10.19
2023-04-01T02:18:12.281Z,10.23
2023-04-01T02:19:14.367Z,10.22
2023-04-01T02:20:21.713Z,10.20
2023-04-01T02:21:23.906Z,10.22
2023-04-01T02:22:30.008Z,10.22
2023-04-01T02:23:31.657Z,10.22
2023-04-01T02:24:33.279Z,10.20
2023-04-01T02:25:36.479Z,10.20
2023-04-01T02:26:38.119Z,10.20
2023-04-01T02:27:40.221Z,10.16
2023-04-01T02:28:42.025Z,10.15
2023-04-01T02:29:43.699Z,10.16
2023-04-01T02:30:45.520Z,10.18
2023-04-01T02:31:47.331Z,10.15
2023-04-01T02:32:49.284Z,10.18
2023-04-01T02:33:50.929Z,10.15
2023-04-01T02:34:52.602Z,10.05
2023-04-01T02:35:54.252Z,10.05
2023-04-01T02:36:55.940Z,9.99
2023-04-01T02:37:57.565Z,9.99
2023-04-01T02:39:03.071Z,10.02
2023-04-01T02:40:07.540Z,9.99
2023-04-01T02:41:09.240Z,9.98
2023-04-01T02:42:11.480Z,9.97
2023-04-01T02:43:13.132Z,9.97
2023-04-01T02:44:15.538Z,9.95
2023-04-01T02:45:17.177Z,9.94
2023-04-01T02:46:18.872Z,9.95
2023-04-01T02:47:20.520Z,9.92
2023-04-01T02:48:22.049Z,9.92
2023-04-01T02:49:23.713Z,9.89
2023-04-01T02:50:25.500Z,9.91
2023-04-01T02:51:27.075Z,9.88
2023-04-01T02:52:29.465Z,9.88
2023-04-01T02:53:31.128Z,9.87
2023-04-01T02:54:32.725Z,9.85
2023-04-01T02:55:34.980Z,9.85
2023-04-01T02:56:36.905Z,9.85
2023-04-01T02:57:38.639Z,9.84
2023-04-01T02:58:40.420Z,9.85
2023-04-01T02:59:42.032Z,9.84
2023-04-01T03:00:43.781Z,9.81
2023-04-01T03:01:45.505Z,9.84
2023-04-01T03:02:47.212Z,9.84
2023-04-01T03:03:48.959Z,9.91
2023-04-01T03:04:50.767Z,9.92
2023-04-01T03:05:52.363Z,9.88
2023-04-01T03:06:54.032Z,9.92
2023-04-01T03:07:55.883Z,9.95
2023-04-01T03:08:57.648Z,9.92
2023-04-01T03:09:59.237Z,9.91
2023-04-01T03:11:00.804Z,9.88
2023-04-01T03:12:02.714Z,9.89
2023-04-01T03:13:04.401Z,9.89
2023-04-01T03:14:06.093Z,9.91
2023-04-01T03:15:11.501Z,9.92
2023-04-01T03:16:13.437Z,9.94
2023-04-01T03:17:15.148Z,9.97
2023-04-01T03:18:16.736Z,9.92
2023-04-01T03:19:18.353Z,9.91
2023-04-01T03:20:21.293Z,9.94
2023-04-01T03:21:23.801Z,9.98
2023-04-01T03:22:25.561Z,9.95
2023-04-01T03:23:27.308Z,9.97
2023-04-01T03:24:28.959Z,9.94
2023-04-01T03:25:31.833Z,9.92
2023-04-01T03:26:33.942Z,9.95
2023-04-01T03:27:36.665Z,9.95
2023-04-01T03:28:38.301Z,9.91
2023-04-01T03:29:40.057Z,9.94
2023-04-01T03:30:41.711Z,9.91
2023-04-01T03:31:43.487Z,9.89
2023-04-01T03:32:45.195Z,9.89
2023-04-01T03:33:46.827Z,9.91
2023-04-01T03:34:48.554Z,9.88
2023-04-01T03:35:53.215Z,9.91
2023-04-01T03:36:54.940Z,9.89
2023-04-01T03:37:56.581Z,9.89
2023-04-01T03:38:58.234Z,9.89
2023-04-01T03:39:59.821Z,9.89
2023-04-01T03:41:01.566Z,9.88
2023-04-01T03:42:03.174Z,9.89
2023-04-01T03:43:09.198Z,9.88
2023-04-01T03:44:10.946Z,9.87
2023-04-01T03:45:13.119Z,9.87
2023-04-01T03:46:21.315Z,9.81
2023-04-01T03:47:23.052Z,9.81
2023-04-01T03:48:25.052Z,9.81
2023-04-01T03:49:26.690Z,9.81
2023-04-01T03:50:30.013Z,9.77
2023-04-01T03:51:32.706Z,9.81
2023-04-01T03:52:34.744Z,9.77
2023-04-01T03:53:36.435Z,9.77
2023-04-01T03:54:38.378Z,9.77
2023-04-01T03:55:40.050Z,9.68
2023-04-01T03:56:41.694Z,9.71
2023-04-01T03:57:43.312Z,9.67
2023-04-01T03:58:44.996Z,9.70
2023-04-01T03:59:46.647Z,9.68
2023-04-01T04:00:48.259Z,9.70
2023-04-01T04:01:49.857Z,9.62
2023-04-01T04:02:51.647Z,9.65
2023-04-01T04:03:53.746Z,9.59
2023-04-01T04:04:55.630Z,9.57
2023-04-01T04:05:57.637Z,9.52
2023-04-01T04:06:59.288Z,9.57
2023-04-01T04:08:00.906Z,9.57
2023-04-01T04:09:02.586Z,9.59
2023-04-01T04:10:04.461Z,9.54
2023-04-01T04:11:06.176Z,9.52
2023-04-01T04:12:07.772Z,9.54
2023-04-01T04:13:09.450Z,9.57
2023-04-01T04:14:11.113Z,9.57
2023-04-01T04:15:12.922Z,9.55
2023-04-01T04:16:16.383Z,9.55
2023-04-01T04:17:18.085Z,9.59
2023-04-01T04:18:19.712Z,9.58
2023-04-01T04:19:21.365Z,9.55
2023-04-01T04:20:22.994Z,9.51
2023-04-01T04:21:24.737Z,9.50
2023-04-01T04:22:26.342Z,9.50
2023-04-01T04:23:29.386Z,9.51
2023-04-01T04:24:31.154Z,9.50
2023-04-01T04:25:33.067Z,9.47
2023-04-01T04:26:34.892Z,9.47
2023-04-01T04:27:36.567Z,9.43
2023-04-01T04:28:38.217Z,9.37
2023-04-01T04:29:39.827Z,9.36
2023-04-01T04:30:41.484Z,9.27
2023-04-01T04:31:44.259Z,9.14
2023-04-01T04:32:46.095Z,9.20
2023-04-01T04:33:47.679Z,9.22
2023-04-01T04:34:49.288Z,9.17
2023-04-01T04:35:51.006Z,9.17
2023-04-01T04:36:52.640Z,9.17
2023-04-01T04:37:54.266Z,9.16
2023-04-01T04:38:55.932Z,9.20
2023-04-01T04:39:57.548Z,9.19
2023-04-01T04:40:59.210Z,9.20
2023-04-01T04:42:00.821Z,9.23
2023-04-01T04:43:02.413Z,9.23
2023-04-01T04:44:04.108Z,9.22
2023-04-01T04:45:06.426Z,9.20
2023-04-01T04:46:11.515Z,9.20
2023-04-01T04:47:13.319Z,9.20
2023-04-01T04:48:19.509Z,9.16
2023-04-01T04:49:21.315Z,9.23
2023-04-01T04:50:22.923Z,9.27
2023-04-01T04:51:24.555Z,9.24
2023-04-01T04:52:26.914Z,9.20
2023-04-01T04:53:28.579Z,9.19
2023-04-01T04:54:30.542Z,9.23
2023-04-01T04:55:32.731Z,9.20
2023-04-01T04:56:34.636Z,9.22
2023-04-01T04:57:36.272Z,9.31
2023-04-01T04:58:38.633Z,9.37
2023-04-01T04:59:40.220Z,9.62
2023-04-01T05:00:42.034Z,9.94
2023-04-01T05:01:43.718Z,10.28
2023-04-01T05:02:45.538Z,10.57
2023-04-01T05:03:47.665Z,10.53
2023-04-01T05:04:49.990Z,10.60
2023-04-01T05:05:52.797Z,10.70
2023-04-01T05:06:54.418Z,10.66
2023-04-01T05:07:56.003Z,10.70
2023-04-01T05:08:58.046Z,10.73
2023-04-01T05:09:59.660Z,10.69
2023-04-01T05:11:02.319Z,10.66
2023-04-01T05:12:04.098Z,10.64
2023-04-01T05:13:05.912Z,10.53
2023-04-01T05:14:07.557Z,10.61
2023-04-01T05:15:09.654Z,10.67
2023-04-01T05:16:12.318Z,10.69
2023-04-01T05:17:14.011Z,10.64
2023-04-01T05:18:15.578Z,10.46
2023-04-01T05:19:17.183Z,10.42
2023-04-01T05:20:18.840Z,10.42
2023-04-01T05:21:20.818Z,10.46
2023-04-01T05:22:22.421Z,10.43
2023-04-01T05:23:24.409Z,10.48
2023-04-01T05:24:26.116Z,10.55
2023-04-01T05:25:27.857Z,10.52
2023-04-01T05:26:29.618Z,10.57
2023-04-01T05:27:31.306Z,10.57
2023-04-01T05:28:32.902Z,10.55
2023-04-01T05:29:34.655Z,10.55
2023-04-01T05:30:36.464Z,10.60
2023-04-01T05:31:38.286Z,10.56
2023-04-01T05:32:40.237Z,10.63
2023-04-01T05:33:41.934Z,10.64
2023-04-01T05:34:43.616Z,10.66
2023-04-01T05:35:45.865Z,10.61
2023-04-01T05:36:47.486Z,10.64
2023-04-01T05:37:49.071Z,10.66
2023-04-01T05:38:51.638Z,10.66
2023-04-01T05:39:53.223Z,10.69
2023-04-01T05:41:00.688Z,10.73
2023-04-01T05:42:02.290Z,10.84
2023-04-01T05:43:03.889Z,10.87
2023-04-01T05:44:05.828Z,10.99
2023-04-01T05:45:07.968Z,11.04
2023-04-01T05:46:09.706Z,10.87
2023-04-01T05:47:11.346Z,10.91
2023-04-01T05:48:12.972Z,10.93
2023-04-01T05:49:14.556Z,10.96
2023-04-01T05:50:16.320Z,11.04
2023-04-01T05:51:17.966Z,10.94
2023-04-01T05:52:19.669Z,11.00
2023-04-01T05:53:21.252Z,10.97
2023-04-01T05:54:22.966Z,11.10
2023-04-01T05:55:24.630Z,11.21
2023-04-01T05:56:26.282Z,11.36
2023-04-01T05:57:28.015Z,11.51
2023-04-01T05:58:29.668Z,11.59
2023-04-01T05:59:32.349Z,11.59
2023-04-01T06:00:33.940Z,11.44
2023-04-01T06:01:35.586Z,11.64
2023-04-01T06:02:38.751Z,11.69
2023-04-01T06:03:40.568Z,11.62
2023-04-01T06:04:42.567Z,11.50
2023-04-01T06:05:44.705Z,11.55
2023-04-01T06:06:46.405Z,11.45
2023-04-01T06:07:48.198Z,11.54
2023-04-01T06:08:49.794Z,11.36
2023-04-01T06:09:51.486Z,11.41
2023-04-01T06:11:01.915Z,11.46
2023-04-01T06:12:22.490Z,11.52
2023-04-01T06:13:33.648Z,11.57
2023-04-01T06:14:50.355Z,11.41
2023-04-01T06:15:51.931Z,11.44
2023-04-01T06:17:00.939Z,11.50
2023-04-01T06:18:27.205Z,11.59
2023-04-01T06:19:41.448Z,11.68
2023-04-01T06:21:03.991Z,11.73
2023-04-01T06:22:31.350Z,11.75
2023-04-01T06:23:46.139Z,11.92
2023-04-01T06:25:06.897Z,11.82
2023-04-01T06:26:30.789Z,11.82
2023-04-01T06:27:34.997Z,11.95
2023-04-01T06:28:52.566Z,11.97
2023-04-01T06:30:17.773Z,12.05
2023-04-01T06:31:37.450Z,12.02
2023-04-01T06:32:46.447Z,11.93
2023-04-01T06:33:58.440Z,12.00
2023-04-01T06:35:08.846Z,12.05
2023-04-01T06:36:22.955Z,12.13
2023-04-01T06:37:27.317Z,12.19
2023-04-01T06:38:56.178Z,12.26
2023-04-01T06:40:36.230Z,12.29
2023-04-01T06:41:49.664Z,12.36
2023-04-01T06:43:06.433Z,12.27
2023-04-01T06:44:45.092Z,12.46
2023-04-01T06:46:05.106Z,12.50
2023-04-01T06:47:47.580Z,12.54
2023-04-01T06:49:18.367Z,12.46
2023-04-01T06:50:31.969Z,12.43
2023-04-01T06:51:57.785Z,12.47
2023-04-01T06:53:02.460Z,12.60
2023-04-01T06:54:09.744Z,12.63
2023-04-01T06:55:38.706Z,12.67
2023-04-01T06:56:41.987Z,12.78
2023-04-01T06:57:45.090Z,12.84
2023-04-01T06:58:52.904Z,12.84
2023-04-01T06:59:56.031Z,12.85
2023-04-01T07:00:58.979Z,12.80
2023-04-01T07:02:07.156Z,12.77
2023-04-01T07:03:13.310Z,12.81
2023-04-01T07:04:20.914Z,12.87
2023-04-01T07:05:22.609Z,12.95
2023-04-01T07:06:27.142Z,12.95
2023-04-01T07:07:35.033Z,12.95
2023-04-01T07:08:38.968Z,13.14
2023-04-01T07:09:42.621Z,13.18
2023-04-01T07:10:48.424Z,13.18
2023-04-01T07:11:50.087Z,13.07
2023-04-01T07:12:54.159Z,12.99
2023-04-01T07:13:58.743Z,13.12
2023-04-01T07:15:07.688Z,13.01
2023-04-01T07:16:15.165Z,13.16
2023-04-01T07:17:30.966Z,13.05
2023-04-01T07:18:39.862Z,12.94
2023-04-01T07:19:53.756Z,13.05
2023-04-01T07:20:55.414Z,13.09
2023-04-01T07:22:03.173Z,13.08
2023-04-01T07:23:07.334Z,13.18
2023-04-01T07:24:17.110Z,13.19
2023-04-01T07:25:26.262Z,13.26
2023-04-01T07:26:27.867Z,13.34
2023-04-01T07:27:29.478Z,13.39
2023-04-01T07:28:32.117Z,13.32
2023-04-01T07:29:33.723Z,13.25
2023-04-01T07:31:01.657Z,13.11
2023-04-01T07:32:11.683Z,13.16
2023-04-01T07:33:34.660Z,13.05
2023-04-01T07:35:08.787Z,13.04
2023-04-01T07:36:16.302Z,12.97
2023-04-01T07:37:26.818Z,12.99
2023-04-01T07:38:41.786Z,13.04
2023-04-01T07:40:05.577Z,13.15
2023-04-01T07:41:16.429Z,13.25
2023-04-01T07:42:28.651Z,13.20
2023-04-01T07:43:48.823Z,13.15
2023-04-01T07:44:59.406Z,13.25
2023-04-01T07:46:19.569Z,13.19
2023-04-01T07:47:27.281Z,13.34
2023-04-01T07:48:34.344Z,13.38
2023-04-01T07:49:40.153Z,13.36
2023-04-01T07:50:41.764Z,13.26
2023-04-01T07:52:10.249Z,13.35
2023-04-01T07:53:26.919Z,13.43
2023-04-01T07:54:50.048Z,13.48
2023-04-01T07:56:13.049Z,13.45
2023-04-01T07:57:22.366Z,13.46
2023-04-01T07:58:53.294Z,13.46
2023-04-01T08:00:00.146Z,13.55
2023-04-01T08:01:13.624Z,13.55
2023-04-01T08:02:44.290Z,13.55
2023-04-01T08:03:55.205Z,13.60
2023-04-01T08:05:13.979Z,13.59
2023-04-01T08:06:34.324Z,13.66
2023-04-01T08:07:51.082Z,13.74
2023-04-01T08:09:11.377Z,13.76
2023-04-01T08:10:23.448Z,13.84
2023-04-01T08:11:36.614Z,13.91
2023-04-01T08:13:28.939Z,13.89
2023-04-01T08:15:02.992Z,13.90
2023-04-01T08:16:29.062Z,13.97
2023-04-01T08:17:52.178Z,13.89
2023-04-01T08:19:06.725Z,13.93
2023-04-01T08:20:27.183Z,13.84
2023-04-01T08:21:31.343Z,13.89
2023-04-01T08:22:52.670Z,13.81
2023-04-01T08:23:58.611Z,13.77
2023-04-01T08:25:03.662Z,13.73
2023-04-01T08:26:11.706Z,13.79
2023-04-01T08:27:38.238Z,13.69
2023-04-01T08:28:46.135Z,13.45
2023-04-01T08:29:55.803Z,13.43
2023-04-01T08:31:04.237Z,13.40
2023-04-01T08:32:27.651Z,13.42
2023-04-01T08:33:30.600Z,13.45
2023-04-01T08:34:35.359Z,13.48
2023-04-01T08:36:06.469Z,13.45
2023-04-01T08:37:12.228Z,13.42
2023-04-01T08:38:43.974Z,13.45
2023-04-01T08:39:55.910Z,13.40
2023-04-01T08:41:13.340Z,13.35
2023-04-01T08:43:05.697Z,13.40
2023-04-01T08:44:31.297Z,13.46
2023-04-01T08:45:54.354Z,13.59
2023-04-01T08:47:21.699Z,13.69
2023-04-01T08:48:42.049Z,13.67
2023-04-01T08:49:52.901Z,13.67
2023-04-01T08:51:06.770Z,13.66
2023-04-01T08:52:28.605Z,13.65
2023-04-01T08:53:48.882Z,13.60
2023-04-01T08:55:11.722Z,13.43
2023-04-01T08:56:19.742Z,13.50
2023-04-01T08:57:39.194Z,13.52
2023-04-01T08:59:05.114Z,13.50
2023-04-01T09:00:28.886Z,13.62
2023-04-01T09:01:48.870Z,13.60
2023-04-01T09:03:12.415Z,13.50
2023-04-01T09:04:32.319Z,13.62
2023-04-01T09:05:56.833Z,13.77
2023-04-01T09:07:04.289Z,13.76
2023-04-01T09:08:47.202Z,13.84
2023-04-01T09:10:32.387Z,14.00
2023-04-01T09:11:53.359Z,14.01
2023-04-01T09:13:10.054Z,14.06
2023-04-01T09:14:24.503Z,14.06
2023-04-01T09:15:50.631Z,14.09
2023-04-01T09:17:20.068Z,14.16
2023-04-01T09:18:21.768Z,13.99
2023-04-01T09:19:32.277Z,13.97
2023-04-01T09:20:39.633Z,14.06
2023-04-01T09:22:11.925Z,14.17
2023-04-01T09:23:41.861Z,14.17
2023-04-01T09:25:08.045Z,14.11
2023-04-01T09:26:12.494Z,13.99
2023-04-01T09:27:30.268Z,14.09
2023-04-01T09:28:47.567Z,14.27
2023-04-01T09:30:08.084Z,14.31
2023-04-01T09:31:49.141Z,14.42
2023-04-01T09:33:03.779Z,14.44
2023-04-01T09:34:32.817Z,14.41
2023-04-01T09:35:51.987Z,14.40
2023-04-01T09:37:31.179Z,14.49
2023-04-01T09:38:56.870Z,14.64
2023-04-01T09:40:01.381Z,14.60
2023-04-01T09:41:13.722Z,14.55
2023-04-01T09:42:30.282Z,14.52
2023-04-01T09:43:34.940Z,14.55
2023-04-01T09:44:38.118Z,14.37
2023-04-01T09:45:59.988Z,14.40
2023-04-01T09:47:24.095Z,14.27
2023-04-01T09:48:51.851Z,14.14
2023-04-01T09:50:14.985Z,14.24
2023-04-01T09:51:31.639Z,14.31
2023-04-01T09:52:46.508Z,14.23
2023-04-01T09:54:13.641Z,14.25
2023-04-01T09:55:21.493Z,14.23
2023-04-01T09:56:47.782Z,14.17
2023-04-01T09:58:19.010Z,14.23
2023-04-01T09:59:56.189Z,14.21
2023-04-01T10:01:19.486Z,14.09
2023-04-01T10:02:32.987Z,14.03
2023-04-01T10:04:02.996Z,14.09
2023-04-01T10:05:29.198Z,14.06
2023-04-01T10:06:57.106Z,14.07
2023-04-01T10:08:35.957Z,14.14
2023-04-01T10:10:02.214Z,14.20
2023-04-01T10:11:11.557Z,14.32
2023-04-01T10:12:20.690Z,14.34
2023-04-01T10:14:04.615Z,14.46
2023-04-01T10:15:20.993Z,14.60
2023-04-01T10:16:25.883Z,14.54
2023-04-01T10:17:58.467Z,14.46
2023-04-01T10:19:15.148Z,14.60
2023-04-01T10:20:42.404Z,14.72
2023-04-01T10:21:56.149Z,14.69
2023-04-01T10:23:14.769Z,14.86
2023-04-01T10:24:47.275Z,14.79
2023-04-01T10:26:28.992Z,14.93
2023-04-01T10:27:52.606Z,14.76
2023-04-01T10:29:02.059Z,14.62
2023-04-01T10:30:25.485Z,14.60
2023-04-01T10:31:45.057Z,14.57
2023-04-01T10:33:01.526Z,14.55
2023-04-01T10:34:38.053Z,14.68
2023-04-01T10:35:58.507Z,14.68
2023-04-01T10:37:02.724Z,14.68
2023-04-01T10:38:32.035Z,14.54
2023-04-01T10:39:50.564Z,14.60
2023-04-01T10:41:19.229Z,14.61
2023-04-01T10:42:45.387Z,14.57
2023-04-01T10:44:10.594Z,14.46
2023-04-01T10:45:32.031Z,14.45
2023-04-01T10:46:44.134Z,14.32
2023-04-01T10:48:03.633Z,14.27
2023-04-01T10:49:26.683Z,14.35
2023-04-01T10:51:05.547Z,14.37
2023-04-01T10:52:33.045Z,14.46
2023-04-01T10:54:08.698Z,14.48
2023-04-01T10:55:19.490Z,14.54
2023-04-01T10:56:49.395Z,14.61
2023-04-01T10:58:09.741Z,14.65
2023-04-01T10:59:33.764Z,14.72
2023-04-01T11:01:13.212Z,14.62
2023-04-01T11:02:52.506Z,14.67
2023-04-01T11:04:22.154Z,14.72
2023-04-01T11:05:45.229Z,14.69
2023-04-01T11:07:04.983Z,14.52
2023-04-01T11:08:31.213Z,14.49
2023-04-01T11:10:11.167Z,14.45
2023-04-01T11:11:29.536Z,14.48
2023-04-01T11:12:49.639Z,14.38
2023-04-01T11:14:18.738Z,14.37
2023-04-01T11:15:29.548Z,14.31
2023-04-01T11:16:34.022Z,14.45
2023-04-01T11:18:06.173Z,14.52
2023-04-01T11:19:22.578Z,14.67
2023-04-01T11:20:24.220Z,14.61
2023-04-01T11:21:56.736Z,14.72
2023-04-01T11:23:25.897Z,14.76
2023-04-01T11:24:45.852Z,14.76
2023-04-01T11:26:04.882Z,14.79
2023-04-01T11:27:31.447Z,14.71
2023-04-01T11:28:45.150Z,14.78
2023-04-01T11:30:18.570Z,14.79
2023-04-01T11:31:57.669Z,14.82
2023-04-01T11:33:04.002Z,14.76
2023-04-01T11:34:12.150Z,14.81
2023-04-01T11:35:25.735Z,14.79
2023-04-01T11:36:52.784Z,14.74
2023-04-01T11:38:36.172Z,14.60
2023-04-01T11:40:04.637Z,14.49
2023-04-01T11:41:31.795Z,14.38
2023-04-01T11:42:50.295Z,14.42
2023-04-01T11:44:10.400Z,14.48
2023-04-01T11:45:15.002Z,14.48
2023-04-01T11:46:20.897Z,14.32
2023-04-01T11:47:25.762Z,14.40
2023-04-01T11:48:46.197Z,14.40
2023-04-01T11:49:51.136Z,14.37
2023-04-01T11:50:58.497Z,14.48
2023-04-01T11:52:29.415Z,14.46
2023-04-01T11:53:33.581Z,14.48
2023-04-01T11:54:57.635Z,14.62
2023-04-01T11:56:23.877Z,14.71
2023-04-01T11:57:39.703Z,14.67
2023-04-01T11:58:58.929Z,14.75
2023-04-01T12:00:15.860Z,14.78
2023-04-01T12:01:28.067Z,14.79
2023-04-01T12:03:08.313Z,14.89
2023-04-01T12:04:49.810Z,14.96
2023-04-01T12:06:12.781Z,14.92
2023-04-01T12:07:53.265Z,14.98
2023-04-01T12:09:09.919Z,15.02
2023-04-01T12:10:20.654Z,15.03
2023-04-01T12:11:25.271Z,15.06
2023-04-01T12:12:33.970Z,15.07
2023-04-01T12:13:52.632Z,15.18
2023-04-01T12:15:12.049Z,15.16
2023-04-01T12:16:16.797Z,15.25
2023-04-01T12:17:27.641Z,15.27
2023-04-01T12:18:36.225Z,15.37
2023-04-01T12:19:46.196Z,15.37
2023-04-01T12:21:16.786Z,15.43
2023-04-01T12:22:36.793Z,15.49
2023-04-01T12:24:04.521Z,15.51
2023-04-01T12:25:38.122Z,15.46
2023-04-01T12:26:58.276Z,15.50
2023-04-01T12:28:15.717Z,15.42
2023-04-01T12:29:54.715Z,15.44
2023-04-01T12:31:16.680Z,15.42
2023-04-01T12:32:27.254Z,15.39
2023-04-01T12:33:52.311Z,15.33
2023-04-01T12:35:26.247Z,15.15
2023-04-01T12:36:41.381Z,15.10
2023-04-01T12:38:15.567Z,15.12
2023-04-01T12:39:46.216Z,15.05
2023-04-01T12:41:04.256Z,14.89
2023-04-01T12:42:12.621Z,14.83
2023-04-01T12:43:29.088Z,14.72
2023-04-01T12:44:51.822Z,14.62
2023-04-01T12:46:04.912Z,14.62
2023-04-01T12:47:25.210Z,14.69
2023-04-01T12:48:42.161Z,14.69
2023-04-01T12:50:09.043Z,14.60
2023-04-01T12:51:30.738Z,14.52
2023-04-01T12:52:44.329Z,14.58
2023-04-01T12:54:09.665Z,14.57
2023-04-01T12:55:41.979Z,14.65
2023-04-01T12:57:12.041Z,14.69
2023-04-01T12:58:13.736Z,14.57
2023-04-01T12:59:33.135Z,14.58
2023-04-01T13:01:25.453Z,14.64
2023-04-01T13:02:47.408Z,14.69
2023-04-01T13:04:06.204Z,14.75
2023-04-01T13:05:22.499Z,14.85
2023-04-01T13:07:12.461Z,14.91
2023-04-01T13:08:25.557Z,15.00
2023-04-01T13:10:02.043Z,15.02
2023-04-01T13:11:21.782Z,15.05
2023-04-01T13:12:46.502Z,15.02
2023-04-01T13:14:15.826Z,15.06
2023-04-01T13:15:36.452Z,14.98
2023-04-01T13:16:41.097Z,15.06
2023-04-01T13:17:48.304Z,14.98
2023-04-01T13:19:02.080Z,15.06
2023-04-01T13:20:08.449Z,14.92
2023-04-01T13:21:16.179Z,14.95
2023-04-01T13:22:41.113Z,14.95
2023-04-01T13:24:11.689Z,14.99
2023-04-01T13:25:54.468Z,14.88
2023-04-01T13:27:13.072Z,14.95
2023-04-01T13:28:42.890Z,14.95
2023-04-01T13:29:49.350Z,15.07
2023-04-01T13:31:01.765Z,15.05
2023-04-01T13:32:22.270Z,14.95
2023-04-01T13:33:31.003Z,14.92
2023-04-01T13:35:03.621Z,14.93
2023-04-01T13:36:09.225Z,14.78
2023-04-01T13:37:25.806Z,14.79
2023-04-01T13:38:42.651Z,14.71
2023-04-01T13:39:50.565Z,14.67
2023-04-01T13:41:12.444Z,14.61
2023-04-01T13:42:25.996Z,14.72
2023-04-01T13:43:41.110Z,14.74
2023-04-01T13:44:51.325Z,14.81
2023-04-01T13:46:11.050Z,14.79
2023-04-01T13:47:31.803Z,14.88
2023-04-01T13:48:51.325Z,14.96
2023-04-01T13:49:58.787Z,14.96
2023-04-01T13:51:09.371Z,15.02
2023-04-01T13:52:16.268Z,15.07
2023-04-01T13:53:39.615Z,15.00
2023-04-01T13:54:58.457Z,15.05
2023-04-01T13:56:22.651Z,15.13
2023-04-01T13:57:40.470Z,15.16
2023-04-01T13:58:47.288Z,15.07
2023-04-01T13:59:57.860Z,15.07
2023-04-01T14:01:25.041Z,15.09
2023-04-01T14:02:32.216Z,14.96
2023-04-01T14:03:33.995Z,14.91
2023-04-01T14:04:49.216Z,14.86
2023-04-01T14:06:15.571Z,14.76
2023-04-01T14:07:32.411Z,14.45
2023-04-01T14:09:04.679Z,14.10
2023-04-01T14:10:14.995Z,14.10
2023-04-01T14:11:35.044Z,13.91
2023-04-01T14:12:50.181Z,13.91
2023-04-01T14:14:30.613Z,13.84
2023-04-01T14:15:50.718Z,13.80
2023-04-01T14:17:10.959Z,13.69
2023-04-01T14:18:18.887Z,13.65
2023-04-01T14:19:39.981Z,13.71
2023-04-01T14:20:41.902Z,13.87
2023-04-01T14:21:47.371Z,13.93
2023-04-01T14:23:06.971Z,14.06
2023-04-01T14:24:19.020Z,14.13
2023-04-01T14:25:31.423Z,14.25
2023-04-01T14:26:55.310Z,14.35
2023-04-01T14:28:00.387Z,14.40
2023-04-01T14:29:44.196Z,14.42
2023-04-01T14:31:10.480Z,14.57
2023-04-01T14:32:44.506Z,14.62
2023-04-01T14:34:07.094Z,14.52
2023-04-01T14:35:43.057Z,14.55
2023-04-01T14:36:47.746Z,14.64
2023-04-01T14:38:10.508Z,14.61
2023-04-01T14:39:40.413Z,14.62
2023-04-01T14:40:52.038Z,14.58
2023-04-01T14:42:22.125Z,14.58
2023-04-01T14:43:49.005Z,14.60
2023-04-01T14:45:13.719Z,14.49
2023-04-01T14:46:24.257Z,14.55
2023-04-01T14:48:01.675Z,14.57
2023-04-01T14:49:16.948Z,14.65
2023-04-01T14:50:20.204Z,14.71
2023-04-01T14:51:32.034Z,14.75
2023-04-01T14:52:37.962Z,14.85
2023-04-01T14:53:45.324Z,14.91
2023-04-01T14:54:47.873Z,14.95
2023-04-01T14:55:52.345Z,15.05
2023-04-01T14:57:14.007Z,15.15
2023-04-01T14:58:20.109Z,15.25
2023-04-01T14:59:22.322Z,15.27
2023-04-01T15:00:23.935Z,15.30
2023-04-01T15:01:47.596Z,15.37
2023-04-01T15:03:04.784Z,15.44
2023-04-01T15:04:21.494Z,15.44
2023-04-01T15:06:01.956Z,15.50
2023-04-01T15:07:22.178Z,15.57
2023-04-01T15:08:26.626Z,15.66
2023-04-01T15:09:53.084Z,15.67
2023-04-01T15:11:17.603Z,15.70
2023-04-01T15:12:31.892Z,15.66
2023-04-01T15:13:42.229Z,15.68
2023-04-01T15:15:04.083Z,15.70
2023-04-01T15:16:42.670Z,15.58
2023-04-01T15:18:21.187Z,15.58
2023-04-01T15:19:44.895Z,15.44
2023-04-01T15:21:13.313Z,15.42
2023-04-01T15:22:40.123Z,15.32
2023-04-01T15:23:51.224Z,15.19
2023-04-01T15:25:05.068Z,15.26
2023-04-01T15:26:21.694Z,15.22
2023-04-01T15:27:35.319Z,15.23
2023-04-01T15:28:54.982Z,15.19
2023-04-01T15:30:05.947Z,15.20
2023-04-01T15:31:26.406Z,15.23
2023-04-01T15:32:49.630Z,15.29
2023-04-01T15:33:57.370Z,15.33